sensor_id;sensor_type;location;lat;lon;timestamp;temperature;humidity
19389;DHT22;9830;41.876;23.474;2023-12-07T00:00:50;3.70;99.90
19389;DHT22;9830;41.876;23.474;2023-12-07T00:03:16;3.70;99.90
19389;DHT22;9830;41.876;23.474;2023-12-07T00:05:41;3.70;99.90
19389;DHT22;9830;41.876;23.474;2023-12-07T00:08:10;3.80;99.90
19389;DHT22;9830;41.876;23.474;2023-12-07T00:10:36;3.90;99.90
19389;DHT22;9830;41.876;23.474;2023-12-07T00:13:02;3.80;99.90
19389;DHT22;9830;41.876;23.474;2023-12-07T00:15:27;3.80;99.90
19389;DHT22;9830;41.876;23.474;2023-12-07T00:17:53;3.80;99.90
19389;DHT22;9830;41.876;23.474;2023-12-07T00:20:19;3.70;99.90
19389;DHT22;9830;41.876;23.474;2023-12-07T00:22:44;3.80;99.90
19389;DHT22;9830;41.876;23.474;2023-12-07T00:25:10;3.90;99.90
19389;DHT22;9830;41.876;23.474;2023-12-07T00:27:36;3.90;99.90
19389;DHT22;9830;41.876;23.474;2023-12-07T00:30:02;3.90;99.90
19389;DHT22;9830;41.876;23.474;2023-12-07T00:32:28;3.80;99.90
19389;DHT22;9830;41.876;23.474;2023-12-07T00:34:54;3.80;99.90
19389;DHT22;9830;41.876;23.474;2023-12-07T00:37:20;3.70;99.90
19389;DHT22;9830;41.876;23.474;2023-12-07T00:39:46;3.70;99.90
19389;DHT22;9830;41.876;23.474;2023-12-07T00:42:12;3.70;99.90
19389;DHT22;9830;41.876;23.474;2023-12-07T00:44:41;3.80;99.90
19389;DHT22;9830;41.876;23.474;2023-12-07T00:47:06;3.80;99.90
19389;DHT22;9830;41.876;23.474;2023-12-07T00:49:32;3.70;99.90
19389;DHT22;9830;41.876;23.474;2023-12-07T00:51:58;3.70;99.90
19389;DHT22;9830;41.876;23.474;2023-12-07T00:54:24;3.70;99.90
19389;DHT22;9830;41.876;23.474;2023-12-07T00:56:50;3.70;99.90
19389;DHT22;9830;41.876;23.474;2023-12-07T00:59:16;3.70;99.90
19389;DHT22;9830;41.876;23.474;2023-12-07T01:01:42;3.70;99.90
19389;DHT22;9830;41.876;23.474;2023-12-07T01:04:07;3.70;99.90
19389;DHT22;9830;41.876;23.474;2023-12-07T01:06:33;3.70;99.90
19389;DHT22;9830;41.876;23.474;2023-12-07T01:08:59;3.70;99.90
19389;DHT22;9830;41.876;23.474;2023-12-07T01:11:25;3.70;99.90
19389;DHT22;9830;41.876;23.474;2023-12-07T01:13:50;3.70;99.90
19389;DHT22;9830;41.876;23.474;2023-12-07T01:16:16;3.70;99.90
19389;DHT22;9830;41.876;23.474;2023-12-07T01:18:42;3.70;99.90
19389;DHT22;9830;41.876;23.474;2023-12-07T01:21:07;3.70;99.90
19389;DHT22;9830;41.876;23.474;2023-12-07T01:23:33;3.80;99.90
19389;DHT22;9830;41.876;23.474;2023-12-07T01:25:59;3.80;99.90
19389;DHT22;9830;41.876;23.474;2023-12-07T01:28:27;3.70;99.90
19389;DHT22;9830;41.876;23.474;2023-12-07T01:30:53;3.70;99.90
19389;DHT22;9830;41.876;23.474;2023-12-07T01:33:19;3.80;99.90
19389;DHT22;9830;41.876;23.474;2023-12-07T01:35:44;3.80;99.90
19389;DHT22;9830;41.876;23.474;2023-12-07T01:38:10;3.70;99.90
19389;DHT22;9830;41.876;23.474;2023-12-07T01:40:36;3.70;99.90
19389;DHT22;9830;41.876;23.474;2023-12-07T01:43:01;3.60;99.90
19389;DHT22;9830;41.876;23.474;2023-12-07T01:45:27;3.60;99.90
19389;DHT22;9830;41.876;23.474;2023-12-07T01:47:54;3.60;99.90
19389;DHT22;9830;41.876;23.474;2023-12-07T01:50:20;3.70;99.90
19389;DHT22;9830;41.876;23.474;2023-12-07T01:52:51;3.70;99.90
19389;DHT22;9830;41.876;23.474;2023-12-07T01:55:19;3.70;99.90
19389;DHT22;9830;41.876;23.474;2023-12-07T01:57:46;3.70;99.90
19389;DHT22;9830;41.876;23.474;2023-12-07T02:00:13;3.80;99.90
19389;DHT22;9830;41.876;23.474;2023-12-07T02:02:39;3.80;99.90
19389;DHT22;9830;41.876;23.474;2023-12-07T02:05:06;3.80;99.90
19389;DHT22;9830;41.876;23.474;2023-12-07T02:07:34;3.80;99.90
19389;DHT22;9830;41.876;23.474;2023-12-07T02:09:59;3.90;99.90
19389;DHT22;9830;41.876;23.474;2023-12-07T02:12:25;3.80;99.90
19389;DHT22;9830;41.876;23.474;2023-12-07T02:14:55;3.90;99.90
19389;DHT22;9830;41.876;23.474;2023-12-07T02:17:35;3.90;99.90
19389;DHT22;9830;41.876;23.474;2023-12-07T02:20:11;3.80;99.90
19389;DHT22;9830;41.876;23.474;2023-12-07T02:22:52;3.80;99.90
19389;DHT22;9830;41.876;23.474;2023-12-07T02:25:19;3.80;99.90
19389;DHT22;9830;41.876;23.474;2023-12-07T02:27:49;3.80;99.90
19389;DHT22;9830;41.876;23.474;2023-12-07T02:30:15;3.70;99.90
19389;DHT22;9830;41.876;23.474;2023-12-07T02:32:42;3.70;99.90
19389;DHT22;9830;41.876;23.474;2023-12-07T02:35:10;3.70;99.90
19389;DHT22;9830;41.876;23.474;2023-12-07T02:37:45;3.70;99.90
19389;DHT22;9830;41.876;23.474;2023-12-07T02:40:14;3.70;99.90
19389;DHT22;9830;41.876;23.474;2023-12-07T02:42:41;3.70;99.90
19389;DHT22;9830;41.876;23.474;2023-12-07T02:45:09;3.80;99.90
19389;DHT22;9830;41.876;23.474;2023-12-07T02:47:35;3.70;99.90
19389;DHT22;9830;41.876;23.474;2023-12-07T02:50:01;3.70;99.90
19389;DHT22;9830;41.876;23.474;2023-12-07T02:52:27;3.70;99.90
19389;DHT22;9830;41.876;23.474;2023-12-07T02:54:54;3.80;99.90
19389;DHT22;9830;41.876;23.474;2023-12-07T02:57:19;3.80;99.90
19389;DHT22;9830;41.876;23.474;2023-12-07T02:59:45;3.80;99.90
19389;DHT22;9830;41.876;23.474;2023-12-07T03:02:11;3.80;99.90
19389;DHT22;9830;41.876;23.474;2023-12-07T03:04:36;3.80;99.90
19389;DHT22;9830;41.876;23.474;2023-12-07T03:07:02;3.80;99.90
19389;DHT22;9830;41.876;23.474;2023-12-07T03:09:28;3.80;99.90
19389;DHT22;9830;41.876;23.474;2023-12-07T03:11:54;3.80;99.90
19389;DHT22;9830;41.876;23.474;2023-12-07T03:14:19;3.90;99.90
19389;DHT22;9830;41.876;23.474;2023-12-07T03:16:45;3.90;99.90
19389;DHT22;9830;41.876;23.474;2023-12-07T03:19:11;3.90;99.90
19389;DHT22;9830;41.876;23.474;2023-12-07T03:21:40;3.80;99.90
19389;DHT22;9830;41.876;23.474;2023-12-07T03:24:09;3.90;99.90
19389;DHT22;9830;41.876;23.474;2023-12-07T03:26:36;3.90;99.90
19389;DHT22;9830;41.876;23.474;2023-12-07T03:29:02;3.90;99.90
19389;DHT22;9830;41.876;23.474;2023-12-07T03:31:28;3.90;99.90
19389;DHT22;9830;41.876;23.474;2023-12-07T03:33:54;4.00;99.90
19389;DHT22;9830;41.876;23.474;2023-12-07T03:36:20;3.90;99.90
19389;DHT22;9830;41.876;23.474;2023-12-07T03:38:46;3.90;99.90
19389;DHT22;9830;41.876;23.474;2023-12-07T03:41:12;3.90;99.90
19389;DHT22;9830;41.876;23.474;2023-12-07T03:43:37;3.90;99.90
19389;DHT22;9830;41.876;23.474;2023-12-07T03:46:07;3.90;99.90
19389;DHT22;9830;41.876;23.474;2023-12-07T03:48:33;3.90;99.90
19389;DHT22;9830;41.876;23.474;2023-12-07T03:50:59;4.00;99.90
19389;DHT22;9830;41.876;23.474;2023-12-07T03:53:25;3.90;99.90
19389;DHT22;9830;41.876;23.474;2023-12-07T03:55:52;3.90;99.90
19389;DHT22;9830;41.876;23.474;2023-12-07T03:58:18;4.00;99.90
19389;DHT22;9830;41.876;23.474;2023-12-07T04:00:44;3.90;99.90
19389;DHT22;9830;41.876;23.474;2023-12-07T04:03:10;3.90;99.90
19389;DHT22;9830;41.876;23.474;2023-12-07T04:05:36;3.90;99.90
19389;DHT22;9830;41.876;23.474;2023-12-07T04:08:01;3.90;99.90
19389;DHT22;9830;41.876;23.474;2023-12-07T04:10:27;3.90;99.90
19389;DHT22;9830;41.876;23.474;2023-12-07T04:12:53;4.00;99.90
19389;DHT22;9830;41.876;23.474;2023-12-07T04:15:19;3.90;99.90
19389;DHT22;9830;41.876;23.474;2023-12-07T04:17:45;3.90;99.90
19389;DHT22;9830;41.876;23.474;2023-12-07T04:20:11;3.90;99.90
19389;DHT22;9830;41.876;23.474;2023-12-07T04:22:38;3.90;99.90
19389;DHT22;9830;41.876;23.474;2023-12-07T04:25:05;3.90;99.90
19389;DHT22;9830;41.876;23.474;2023-12-07T04:27:31;3.90;99.90
19389;DHT22;9830;41.876;23.474;2023-12-07T04:29:57;3.90;99.90
19389;DHT22;9830;41.876;23.474;2023-12-07T04:32:23;3.90;99.90
19389;DHT22;9830;41.876;23.474;2023-12-07T04:34:49;3.90;99.90
19389;DHT22;9830;41.876;23.474;2023-12-07T04:37:15;3.80;99.90
19389;DHT22;9830;41.876;23.474;2023-12-07T04:39:40;3.70;99.90
19389;DHT22;9830;41.876;23.474;2023-12-07T04:42:06;3.60;99.90
19389;DHT22;9830;41.876;23.474;2023-12-07T04:44:32;3.50;99.90
19389;DHT22;9830;41.876;23.474;2023-12-07T04:46:58;3.50;99.90
19389;DHT22;9830;41.876;23.474;2023-12-07T04:49:23;3.40;99.90
19389;DHT22;9830;41.876;23.474;2023-12-07T04:51:49;3.30;99.90
19389;DHT22;9830;41.876;23.474;2023-12-07T04:54:15;3.30;99.90
19389;DHT22;9830;41.876;23.474;2023-12-07T04:56:41;3.30;99.90
19389;DHT22;9830;41.876;23.474;2023-12-07T04:59:07;3.20;99.90
19389;DHT22;9830;41.876;23.474;2023-12-07T05:01:35;3.20;99.90
19389;DHT22;9830;41.876;23.474;2023-12-07T05:04:01;3.20;99.90
19389;DHT22;9830;41.876;23.474;2023-12-07T05:06:29;3.20;99.90
19389;DHT22;9830;41.876;23.474;2023-12-07T05:08:55;3.30;99.90
19389;DHT22;9830;41.876;23.474;2023-12-07T05:11:20;3.30;99.90
19389;DHT22;9830;41.876;23.474;2023-12-07T05:13:46;3.30;99.90
19389;DHT22;9830;41.876;23.474;2023-12-07T05:16:13;3.40;99.90
19389;DHT22;9830;41.876;23.474;2023-12-07T05:18:39;3.40;99.90
19389;DHT22;9830;41.876;23.474;2023-12-07T05:21:05;3.50;99.90
19389;DHT22;9830;41.876;23.474;2023-12-07T05:23:31;3.50;99.90
19389;DHT22;9830;41.876;23.474;2023-12-07T05:25:56;3.50;99.90
19389;DHT22;9830;41.876;23.474;2023-12-07T05:28:22;3.50;99.90
19389;DHT22;9830;41.876;23.474;2023-12-07T05:30:48;3.50;99.90
19389;DHT22;9830;41.876;23.474;2023-12-07T05:33:14;3.60;99.90
19389;DHT22;9830;41.876;23.474;2023-12-07T05:35:40;3.60;99.90
19389;DHT22;9830;41.876;23.474;2023-12-07T05:38:06;3.60;99.90
19389;DHT22;9830;41.876;23.474;2023-12-07T05:40:31;3.70;99.90
19389;DHT22;9830;41.876;23.474;2023-12-07T05:42:57;3.70;99.90
19389;DHT22;9830;41.876;23.474;2023-12-07T05:45:23;3.60;99.90
19389;DHT22;9830;41.876;23.474;2023-12-07T05:47:48;3.60;99.90
19389;DHT22;9830;41.876;23.474;2023-12-07T05:50:14;3.60;99.90
19389;DHT22;9830;41.876;23.474;2023-12-07T05:52:40;3.60;99.90
19389;DHT22;9830;41.876;23.474;2023-12-07T05:55:06;3.50;99.90
19389;DHT22;9830;41.876;23.474;2023-12-07T05:57:32;3.60;99.90
19389;DHT22;9830;41.876;23.474;2023-12-07T05:59:57;3.60;99.90
19389;DHT22;9830;41.876;23.474;2023-12-07T06:02:23;3.60;99.90
19389;DHT22;9830;41.876;23.474;2023-12-07T06:04:49;3.60;99.90
19389;DHT22;9830;41.876;23.474;2023-12-07T06:07:15;3.60;99.90
19389;DHT22;9830;41.876;23.474;2023-12-07T06:09:41;3.60;99.90
19389;DHT22;9830;41.876;23.474;2023-12-07T06:12:07;3.60;99.90
19389;DHT22;9830;41.876;23.474;2023-12-07T06:14:32;3.50;99.90
19389;DHT22;9830;41.876;23.474;2023-12-07T06:16:58;3.50;99.90
19389;DHT22;9830;41.876;23.474;2023-12-07T06:19:25;3.50;99.90
19389;DHT22;9830;41.876;23.474;2023-12-07T06:21:50;3.50;99.90
19389;DHT22;9830;41.876;23.474;2023-12-07T06:24:16;3.50;99.90
19389;DHT22;9830;41.876;23.474;2023-12-07T06:26:42;3.60;99.90
19389;DHT22;9830;41.876;23.474;2023-12-07T06:29:07;3.70;99.90
19389;DHT22;9830;41.876;23.474;2023-12-07T06:31:33;3.80;99.90
19389;DHT22;9830;41.876;23.474;2023-12-07T06:33:59;3.90;99.90
19389;DHT22;9830;41.876;23.474;2023-12-07T06:36:26;3.90;99.90
19389;DHT22;9830;41.876;23.474;2023-12-07T06:38:52;3.80;99.90
19389;DHT22;9830;41.876;23.474;2023-12-07T06:41:20;3.80;99.90
19389;DHT22;9830;41.876;23.474;2023-12-07T06:43:46;3.90;99.90
19389;DHT22;9830;41.876;23.474;2023-12-07T06:46:12;3.90;99.90
19389;DHT22;9830;41.876;23.474;2023-12-07T06:48:38;3.90;99.90
19389;DHT22;9830;41.876;23.474;2023-12-07T06:51:04;3.90;99.90
19389;DHT22;9830;41.876;23.474;2023-12-07T06:53:30;3.90;99.90
19389;DHT22;9830;41.876;23.474;2023-12-07T06:55:57;4.00;99.90
19389;DHT22;9830;41.876;23.474;2023-12-07T06:58:23;4.10;99.90
19389;DHT22;9830;41.876;23.474;2023-12-07T07:00:49;4.00;99.90
19389;DHT22;9830;41.876;23.474;2023-12-07T07:03:15;4.00;99.90
19389;DHT22;9830;41.876;23.474;2023-12-07T07:05:41;3.90;99.90
19389;DHT22;9830;41.876;23.474;2023-12-07T07:08:06;3.80;99.90
19389;DHT22;9830;41.876;23.474;2023-12-07T07:10:34;3.80;99.90
19389;DHT22;9830;41.876;23.474;2023-12-07T07:13:03;3.80;99.90
19389;DHT22;9830;41.876;23.474;2023-12-07T07:15:31;3.90;99.90
19389;DHT22;9830;41.876;23.474;2023-12-07T07:17:57;3.90;99.90
19389;DHT22;9830;41.876;23.474;2023-12-07T07:20:22;3.90;99.90
19389;DHT22;9830;41.876;23.474;2023-12-07T07:22:48;3.80;99.90
19389;DHT22;9830;41.876;23.474;2023-12-07T07:25:14;3.90;99.90
19389;DHT22;9830;41.876;23.474;2023-12-07T07:27:47;4.00;99.90
19389;DHT22;9830;41.876;23.474;2023-12-07T07:30:13;4.00;99.90
19389;DHT22;9830;41.876;23.474;2023-12-07T07:32:40;4.20;99.90
19389;DHT22;9830;41.876;23.474;2023-12-07T07:35:05;4.20;99.90
19389;DHT22;9830;41.876;23.474;2023-12-07T07:37:31;4.30;99.90
19389;DHT22;9830;41.876;23.474;2023-12-07T07:39:57;4.40;99.90
19389;DHT22;9830;41.876;23.474;2023-12-07T07:42:23;4.30;99.90
19389;DHT22;9830;41.876;23.474;2023-12-07T07:44:48;4.20;99.90
19389;DHT22;9830;41.876;23.474;2023-12-07T07:47:14;4.20;99.90
19389;DHT22;9830;41.876;23.474;2023-12-07T07:49:39;4.30;99.90
19389;DHT22;9830;41.876;23.474;2023-12-07T07:52:05;4.40;99.90
19389;DHT22;9830;41.876;23.474;2023-12-07T07:54:31;4.50;99.90
19389;DHT22;9830;41.876;23.474;2023-12-07T07:56:57;4.50;99.90
19389;DHT22;9830;41.876;23.474;2023-12-07T07:59:22;4.60;99.90
19389;DHT22;9830;41.876;23.474;2023-12-07T08:01:48;4.70;99.90
19389;DHT22;9830;41.876;23.474;2023-12-07T08:04:15;4.80;99.90
19389;DHT22;9830;41.876;23.474;2023-12-07T08:06:41;4.80;99.90
19389;DHT22;9830;41.876;23.474;2023-12-07T08:09:08;4.80;99.90
19389;DHT22;9830;41.876;23.474;2023-12-07T08:11:34;4.90;99.90
19389;DHT22;9830;41.876;23.474;2023-12-07T08:14:00;4.90;99.90
19389;DHT22;9830;41.876;23.474;2023-12-07T08:16:26;5.00;99.90
19389;DHT22;9830;41.876;23.474;2023-12-07T08:18:53;5.10;99.90
19389;DHT22;9830;41.876;23.474;2023-12-07T08:21:23;5.40;99.90
19389;DHT22;9830;41.876;23.474;2023-12-07T08:23:48;5.40;99.90
19389;DHT22;9830;41.876;23.474;2023-12-07T08:26:14;5.30;99.90
19389;DHT22;9830;41.876;23.474;2023-12-07T08:28:41;5.20;99.90
19389;DHT22;9830;41.876;23.474;2023-12-07T08:31:07;5.20;99.90
19389;DHT22;9830;41.876;23.474;2023-12-07T08:33:33;5.20;99.90
19389;DHT22;9830;41.876;23.474;2023-12-07T08:36:03;5.20;99.90
19389;DHT22;9830;41.876;23.474;2023-12-07T08:38:29;5.30;99.90
19389;DHT22;9830;41.876;23.474;2023-12-07T08:40:54;5.40;99.90
19389;DHT22;9830;41.876;23.474;2023-12-07T08:43:21;5.30;99.90
19389;DHT22;9830;41.876;23.474;2023-12-07T08:45:50;5.40;99.90
19389;DHT22;9830;41.876;23.474;2023-12-07T08:48:16;5.40;99.90
19389;DHT22;9830;41.876;23.474;2023-12-07T08:50:42;5.70;99.90
19389;DHT22;9830;41.876;23.474;2023-12-07T08:53:07;5.90;99.90
19389;DHT22;9830;41.876;23.474;2023-12-07T08:55:33;5.90;99.90
19389;DHT22;9830;41.876;23.474;2023-12-07T08:57:59;6.00;99.90
19389;DHT22;9830;41.876;23.474;2023-12-07T09:00:26;5.90;99.90
19389;DHT22;9830;41.876;23.474;2023-12-07T09:02:52;5.80;99.90
19389;DHT22;9830;41.876;23.474;2023-12-07T09:05:18;6.00;99.90
19389;DHT22;9830;41.876;23.474;2023-12-07T09:07:44;5.90;99.90
19389;DHT22;9830;41.876;23.474;2023-12-07T09:10:10;6.00;99.90
19389;DHT22;9830;41.876;23.474;2023-12-07T09:12:36;6.20;99.90
19389;DHT22;9830;41.876;23.474;2023-12-07T09:15:02;6.20;99.90
19389;DHT22;9830;41.876;23.474;2023-12-07T09:17:28;6.40;99.90
19389;DHT22;9830;41.876;23.474;2023-12-07T09:19:54;6.60;99.90
19389;DHT22;9830;41.876;23.474;2023-12-07T09:22:20;6.40;99.90
19389;DHT22;9830;41.876;23.474;2023-12-07T09:24:46;6.10;99.90
19389;DHT22;9830;41.876;23.474;2023-12-07T09:27:15;6.20;99.90
19389;DHT22;9830;41.876;23.474;2023-12-07T09:29:41;6.30;99.90
19389;DHT22;9830;41.876;23.474;2023-12-07T09:32:07;6.40;99.90
19389;DHT22;9830;41.876;23.474;2023-12-07T09:34:33;6.40;99.90
19389;DHT22;9830;41.876;23.474;2023-12-07T09:37:09;6.50;99.90
19389;DHT22;9830;41.876;23.474;2023-12-07T09:39:35;6.60;99.90
19389;DHT22;9830;41.876;23.474;2023-12-07T09:42:01;6.50;99.90
19389;DHT22;9830;41.876;23.474;2023-12-07T09:44:27;6.80;99.90
19389;DHT22;9830;41.876;23.474;2023-12-07T09:46:53;7.00;99.90
19389;DHT22;9830;41.876;23.474;2023-12-07T09:49:22;6.90;99.90
19389;DHT22;9830;41.876;23.474;2023-12-07T09:51:49;6.70;99.90
19389;DHT22;9830;41.876;23.474;2023-12-07T09:54:16;6.80;99.90
19389;DHT22;9830;41.876;23.474;2023-12-07T09:56:43;7.00;99.90
19389;DHT22;9830;41.876;23.474;2023-12-07T09:59:09;7.70;99.90
19389;DHT22;9830;41.876;23.474;2023-12-07T10:01:35;7.80;99.90
19389;DHT22;9830;41.876;23.474;2023-12-07T10:04:20;8.30;99.90
19389;DHT22;9830;41.876;23.474;2023-12-07T10:06:48;8.50;99.90
19389;DHT22;9830;41.876;23.474;2023-12-07T10:09:15;8.80;99.90
19389;DHT22;9830;41.876;23.474;2023-12-07T10:11:41;8.80;99.90
19389;DHT22;9830;41.876;23.474;2023-12-07T10:14:07;8.80;99.90
19389;DHT22;9830;41.876;23.474;2023-12-07T10:16:33;8.90;99.90
19389;DHT22;9830;41.876;23.474;2023-12-07T10:19:17;8.90;99.90
19389;DHT22;9830;41.876;23.474;2023-12-07T10:21:51;8.90;99.90
19389;DHT22;9830;41.876;23.474;2023-12-07T10:24:21;9.10;99.90
19389;DHT22;9830;41.876;23.474;2023-12-07T10:26:48;8.80;99.90
19389;DHT22;9830;41.876;23.474;2023-12-07T10:29:14;9.00;99.90
19389;DHT22;9830;41.876;23.474;2023-12-07T10:31:42;8.70;99.90
19389;DHT22;9830;41.876;23.474;2023-12-07T10:34:09;8.60;99.90
19389;DHT22;9830;41.876;23.474;2023-12-07T10:36:35;8.30;99.90
19389;DHT22;9830;41.876;23.474;2023-12-07T10:39:01;8.60;99.90
19389;DHT22;9830;41.876;23.474;2023-12-07T10:41:27;8.70;99.90
19389;DHT22;9830;41.876;23.474;2023-12-07T10:44:01;8.70;99.90
19389;DHT22;9830;41.876;23.474;2023-12-07T10:46:29;8.90;99.90
19389;DHT22;9830;41.876;23.474;2023-12-07T10:49:03;9.00;99.90
19389;DHT22;9830;41.876;23.474;2023-12-07T10:51:30;8.90;99.90
19389;DHT22;9830;41.876;23.474;2023-12-07T10:53:57;9.10;99.90
19389;DHT22;9830;41.876;23.474;2023-12-07T10:56:39;9.10;99.90
19389;DHT22;9830;41.876;23.474;2023-12-07T10:59:09;9.20;99.90
19389;DHT22;9830;41.876;23.474;2023-12-07T11:01:41;8.80;99.90
19389;DHT22;9830;41.876;23.474;2023-12-07T11:04:11;9.00;99.90
19389;DHT22;9830;41.876;23.474;2023-12-07T11:06:38;9.00;99.90
19389;DHT22;9830;41.876;23.474;2023-12-07T11:09:08;8.80;99.90
19389;DHT22;9830;41.876;23.474;2023-12-07T11:12:12;8.90;99.90
19389;DHT22;9830;41.876;23.474;2023-12-07T11:14:41;9.00;99.90
19389;DHT22;9830;41.876;23.474;2023-12-07T11:17:08;8.90;99.90
19389;DHT22;9830;41.876;23.474;2023-12-07T11:22:10;8.90;99.90
19389;DHT22;9830;41.876;23.474;2023-12-07T11:24:37;8.80;99.90
19389;DHT22;9830;41.876;23.474;2023-12-07T11:27:03;8.90;99.90
19389;DHT22;9830;41.876;23.474;2023-12-07T11:29:29;8.80;99.90
19389;DHT22;9830;41.876;23.474;2023-12-07T11:31:56;8.80;99.90
19389;DHT22;9830;41.876;23.474;2023-12-07T11:34:42;8.80;99.90
19389;DHT22;9830;41.876;23.474;2023-12-07T11:37:10;8.80;99.90
19389;DHT22;9830;41.876;23.474;2023-12-07T11:39:37;8.60;99.90
19389;DHT22;9830;41.876;23.474;2023-12-07T11:42:07;8.80;99.90
19389;DHT22;9830;41.876;23.474;2023-12-07T11:44:34;9.10;99.90
19389;DHT22;9830;41.876;23.474;2023-12-07T11:47:03;9.30;99.90
19389;DHT22;9830;41.876;23.474;2023-12-07T11:49:30;9.10;99.90
19389;DHT22;9830;41.876;23.474;2023-12-07T11:51:57;9.20;99.90
19389;DHT22;9830;41.876;23.474;2023-12-07T11:54:23;9.30;99.90
19389;DHT22;9830;41.876;23.474;2023-12-07T11:56:55;9.30;99.90
19389;DHT22;9830;41.876;23.474;2023-12-07T11:59:22;9.00;99.90
19389;DHT22;9830;41.876;23.474;2023-12-07T12:01:48;9.00;99.90
19389;DHT22;9830;41.876;23.474;2023-12-07T12:04:18;9.10;99.90
19389;DHT22;9830;41.876;23.474;2023-12-07T12:06:44;9.00;99.90
19389;DHT22;9830;41.876;23.474;2023-12-07T12:09:13;9.00;99.90
19389;DHT22;9830;41.876;23.474;2023-12-07T12:11:48;8.90;99.90
19389;DHT22;9830;41.876;23.474;2023-12-07T12:14:16;8.90;99.90
19389;DHT22;9830;41.876;23.474;2023-12-07T12:16:46;8.80;99.90
19389;DHT22;9830;41.876;23.474;2023-12-07T12:19:12;8.60;99.90
19389;DHT22;9830;41.876;23.474;2023-12-07T12:21:40;8.50;99.90
19389;DHT22;9830;41.876;23.474;2023-12-07T12:24:10;8.30;99.90
19389;DHT22;9830;41.876;23.474;2023-12-07T12:26:38;8.20;99.90
19389;DHT22;9830;41.876;23.474;2023-12-07T12:29:08;8.10;99.90
19389;DHT22;9830;41.876;23.474;2023-12-07T12:31:34;7.90;99.90
19389;DHT22;9830;41.876;23.474;2023-12-07T12:34:05;7.80;99.90
19389;DHT22;9830;41.876;23.474;2023-12-07T12:36:32;7.70;99.90
19389;DHT22;9830;41.876;23.474;2023-12-07T12:38:58;7.60;99.90
19389;DHT22;9830;41.876;23.474;2023-12-07T12:41:25;7.50;99.90
19389;DHT22;9830;41.876;23.474;2023-12-07T12:43:51;7.40;99.90
19389;DHT22;9830;41.876;23.474;2023-12-07T12:46:18;7.40;99.90
19389;DHT22;9830;41.876;23.474;2023-12-07T12:51:20;7.30;99.90
19389;DHT22;9830;41.876;23.474;2023-12-07T12:53:47;7.30;99.90
19389;DHT22;9830;41.876;23.474;2023-12-07T12:56:14;7.30;99.90
19389;DHT22;9830;41.876;23.474;2023-12-07T12:58:40;7.20;99.90
19389;DHT22;9830;41.876;23.474;2023-12-07T13:01:06;7.20;99.90
19389;DHT22;9830;41.876;23.474;2023-12-07T13:03:32;7.10;99.90
19389;DHT22;9830;41.876;23.474;2023-12-07T13:05:58;7.00;99.90
19389;DHT22;9830;41.876;23.474;2023-12-07T13:08:24;7.10;99.90
19389;DHT22;9830;41.876;23.474;2023-12-07T13:10:50;7.00;99.90
19389;DHT22;9830;41.876;23.474;2023-12-07T13:13:15;7.10;99.90
19389;DHT22;9830;41.876;23.474;2023-12-07T13:15:42;7.00;99.90
19389;DHT22;9830;41.876;23.474;2023-12-07T13:18:07;7.00;99.90
19389;DHT22;9830;41.876;23.474;2023-12-07T13:20:36;6.90;99.90
19389;DHT22;9830;41.876;23.474;2023-12-07T13:23:02;6.80;99.90
19389;DHT22;9830;41.876;23.474;2023-12-07T13:25:28;6.70;99.90
19389;DHT22;9830;41.876;23.474;2023-12-07T13:27:54;6.60;99.90
19389;DHT22;9830;41.876;23.474;2023-12-07T13:30:20;6.70;99.90
19389;DHT22;9830;41.876;23.474;2023-12-07T13:32:46;6.60;99.90
19389;DHT22;9830;41.876;23.474;2023-12-07T13:35:13;6.50;99.90
19389;DHT22;9830;41.876;23.474;2023-12-07T13:37:39;6.30;99.90
19389;DHT22;9830;41.876;23.474;2023-12-07T13:40:05;6.20;99.90
19389;DHT22;9830;41.876;23.474;2023-12-07T13:42:36;6.10;99.90
19389;DHT22;9830;41.876;23.474;2023-12-07T13:45:02;6.00;99.90
19389;DHT22;9830;41.876;23.474;2023-12-07T13:47:28;5.90;99.90
19389;DHT22;9830;41.876;23.474;2023-12-07T13:50:00;5.80;99.90
19389;DHT22;9830;41.876;23.474;2023-12-07T13:52:27;5.80;99.90
19389;DHT22;9830;41.876;23.474;2023-12-07T13:54:54;5.70;99.90
19389;DHT22;9830;41.876;23.474;2023-12-07T13:57:24;5.60;99.90
19389;DHT22;9830;41.876;23.474;2023-12-07T13:59:50;5.60;99.90
19389;DHT22;9830;41.876;23.474;2023-12-07T14:02:16;5.50;99.90
19389;DHT22;9830;41.876;23.474;2023-12-07T14:04:42;5.50;99.90
19389;DHT22;9830;41.876;23.474;2023-12-07T14:07:16;5.40;99.90
19389;DHT22;9830;41.876;23.474;2023-12-07T14:09:46;5.30;99.90
19389;DHT22;9830;41.876;23.474;2023-12-07T14:12:12;5.30;99.90
19389;DHT22;9830;41.876;23.474;2023-12-07T14:14:40;5.20;99.90
19389;DHT22;9830;41.876;23.474;2023-12-07T14:17:06;5.20;99.90
19389;DHT22;9830;41.876;23.474;2023-12-07T14:19:32;5.20;99.90
19389;DHT22;9830;41.876;23.474;2023-12-07T14:21:58;5.20;99.90
19389;DHT22;9830;41.876;23.474;2023-12-07T14:24:25;5.10;99.90
19389;DHT22;9830;41.876;23.474;2023-12-07T14:26:51;5.10;99.90
19389;DHT22;9830;41.876;23.474;2023-12-07T14:29:16;5.10;99.90
19389;DHT22;9830;41.876;23.474;2023-12-07T14:31:47;5.00;99.90
19389;DHT22;9830;41.876;23.474;2023-12-07T14:34:14;5.00;99.90
19389;DHT22;9830;41.876;23.474;2023-12-07T14:36:40;5.00;99.90
19389;DHT22;9830;41.876;23.474;2023-12-07T14:39:13;5.00;99.90
19389;DHT22;9830;41.876;23.474;2023-12-07T14:41:46;5.00;99.90
19389;DHT22;9830;41.876;23.474;2023-12-07T14:44:13;4.90;99.90
19389;DHT22;9830;41.876;23.474;2023-12-07T14:46:44;4.90;99.90
19389;DHT22;9830;41.876;23.474;2023-12-07T14:49:12;4.90;99.90
19389;DHT22;9830;41.876;23.474;2023-12-07T14:51:38;4.80;99.90
19389;DHT22;9830;41.876;23.474;2023-12-07T14:54:04;4.80;99.90
19389;DHT22;9830;41.876;23.474;2023-12-07T14:56:30;4.70;99.90
19389;DHT22;9830;41.876;23.474;2023-12-07T14:58:56;4.70;99.90
19389;DHT22;9830;41.876;23.474;2023-12-07T15:01:23;4.60;99.90
19389;DHT22;9830;41.876;23.474;2023-12-07T15:03:49;4.60;99.90
19389;DHT22;9830;41.876;23.474;2023-12-07T15:06:15;4.50;99.90
19389;DHT22;9830;41.876;23.474;2023-12-07T15:08:40;4.50;99.90
19389;DHT22;9830;41.876;23.474;2023-12-07T15:11:06;4.40;99.90
19389;DHT22;9830;41.876;23.474;2023-12-07T15:13:34;4.40;99.90
19389;DHT22;9830;41.876;23.474;2023-12-07T15:16:00;4.40;99.90
19389;DHT22;9830;41.876;23.474;2023-12-07T15:18:26;4.30;99.90
19389;DHT22;9830;41.876;23.474;2023-12-07T15:20:54;4.30;99.90
19389;DHT22;9830;41.876;23.474;2023-12-07T15:23:20;4.40;99.90
19389;DHT22;9830;41.876;23.474;2023-12-07T15:25:45;4.40;99.90
19389;DHT22;9830;41.876;23.474;2023-12-07T15:28:11;4.30;99.90
19389;DHT22;9830;41.876;23.474;2023-12-07T15:30:40;4.30;99.90
19389;DHT22;9830;41.876;23.474;2023-12-07T15:33:05;4.30;99.90
19389;DHT22;9830;41.876;23.474;2023-12-07T15:35:32;4.30;99.90
19389;DHT22;9830;41.876;23.474;2023-12-07T15:37:58;4.20;99.90
19389;DHT22;9830;41.876;23.474;2023-12-07T15:40:23;4.20;99.90
19389;DHT22;9830;41.876;23.474;2023-12-07T15:42:49;4.10;99.90
19389;DHT22;9830;41.876;23.474;2023-12-07T15:45:15;4.10;99.90
19389;DHT22;9830;41.876;23.474;2023-12-07T15:47:41;4.10;99.90